createdAt,value
2023-04-13T00:00:11.957Z,99086.50
2023-04-13T00:01:13.909Z,99085.03
2023-04-13T00:02:16.656Z,99073.03
2023-04-13T00:03:22.783Z,99085.13
2023-04-13T00:04:27.774Z,99086.47
2023-04-13T00:05:30.839Z,99090.41
2023-04-13T00:06:33.142Z,99074.72
2023-04-13T00:07:38.595Z,99074.19
2023-04-13T00:08:42.941Z,99072.63
2023-04-13T00:09:47.628Z,99074.69
2023-04-13T00:10:51.031Z,99070.50
2023-04-13T00:11:58.137Z,99062.13
2023-04-13T00:13:01.568Z,99061.53
2023-04-13T00:14:06.757Z,99052.22
2023-04-13T00:15:09.818Z,99053.28
2023-04-13T00:16:13.913Z,99063.41
2023-04-13T00:17:15.642Z,99057.88
2023-04-13T00:18:18.913Z,99062.03
2023-04-13T00:19:20.584Z,99067.44
2023-04-13T00:20:26.019Z,99077.03
2023-04-13T00:21:27.989Z,99064.94
2023-04-13T00:22:30.957Z,99070.25
2023-04-13T00:23:36.191Z,99071.25
2023-04-13T00:24:39.070Z,99078.25
2023-04-13T00:25:40.838Z,99077.84
2023-04-13T00:26:44.982Z,99080.19
2023-04-13T00:27:46.976Z,99088.63
2023-04-13T00:28:49.802Z,99087.94
2023-04-13T00:29:51.867Z,99091.31
2023-04-13T00:30:55.754Z,99108.47
2023-04-13T00:31:57.655Z,99118.25
2023-04-13T00:33:01.330Z,99120.47
2023-04-13T00:34:04.567Z,99110.16
2023-04-13T00:35:09.782Z,99113.78
2023-04-13T00:36:13.313Z,99095.00
2023-04-13T00:37:20.152Z,99084.59
2023-04-13T00:38:24.428Z,99089.06
2023-04-13T00:39:31.302Z,99101.69
2023-04-13T00:40:33.185Z,99094.22
2023-04-13T00:41:36.086Z,99095.47
2023-04-13T00:42:38.421Z,99081.44
2023-04-13T00:43:41.247Z,99081.53
2023-04-13T00:44:42.908Z,99093.06
2023-04-13T00:45:45.639Z,99089.88
2023-04-13T00:46:48.292Z,99094.22
2023-04-13T00:47:52.191Z,99095.75
2023-04-13T00:48:55.826Z,99104.16
2023-04-13T00:50:03.868Z,99112.78
2023-04-13T00:51:05.980Z,99099.00
2023-04-13T00:52:12.184Z,99100.59
2023-04-13T00:53:14.248Z,99111.06
2023-04-13T00:54:19.198Z,99110.94
2023-04-13T00:55:22.081Z,99094.09
2023-04-13T00:56:27.549Z,99116.59
2023-04-13T00:57:29.844Z,99101.34
2023-04-13T00:58:33.982Z,99109.84
2023-04-13T00:59:40.569Z,99115.28
2023-04-13T01:00:46.409Z,99111.06
2023-04-13T01:01:50.997Z,99108.63
2023-04-13T01:02:55.062Z,99100.06
2023-04-13T01:03:59.927Z,99092.47
2023-04-13T01:05:07.676Z,99103.72
2023-04-13T01:06:17.881Z,99097.19
2023-04-13T01:07:28.921Z,99104.28
2023-04-13T01:08:38.300Z,99100.13
2023-04-13T01:09:46.583Z,99099.38
2023-04-13T01:10:56.917Z,99092.63
2023-04-13T01:12:08.595Z,99112.41
2023-04-13T01:13:18.625Z,99106.88
2023-04-13T01:14:29.217Z,99097.88
2023-04-13T01:15:37.090Z,99088.41
2023-04-13T01:16:44.226Z,99086.72
2023-04-13T01:17:52.247Z,99082.38
2023-04-13T01:18:57.166Z,99089.00
2023-04-13T01:20:01.773Z,99106.31
2023-04-13T01:21:06.848Z,99105.00
2023-04-13T01:22:14.550Z,99106.31
2023-04-13T01:23:29.180Z,99105.13
2023-04-13T01:24:41.949Z,99102.41
2023-04-13T01:25:52.678Z,99093.84
2023-04-13T01:26:58.368Z,99112.03
2023-04-13T01:28:05.759Z,99108.31
2023-04-13T01:29:07.606Z,99109.84
2023-04-13T01:30:11.783Z,99104.91
2023-04-13T01:31:15.678Z,99099.81
2023-04-13T01:32:21.474Z,99097.72
2023-04-13T01:33:25.515Z,99093.56
2023-04-13T01:34:28.521Z,99116.69
2023-04-13T01:35:31.034Z,99113.91
2023-04-13T01:36:35.235Z,99121.66
2023-04-13T01:37:37.837Z,99123.22
2023-04-13T01:38:40.983Z,99110.28
2023-04-13T01:39:42.979Z,99102.13
2023-04-13T01:40:47.211Z,99111.03
2023-04-13T01:41:49.278Z,99097.06
2023-04-13T01:42:52.502Z,99106.50
2023-04-13T01:43:57.316Z,99099.88
2023-04-13T01:45:01.615Z,99117.03
2023-04-13T01:46:08.036Z,99101.63
2023-04-13T01:47:18.079Z,99099.78
2023-04-13T01:48:25.139Z,99084.69
2023-04-13T01:49:33.805Z,99100.03
2023-04-13T01:50:39.394Z,99096.47
2023-04-13T01:51:45.369Z,99103.66
2023-04-13T01:52:48.038Z,99106.00
2023-04-13T01:53:57.776Z,99099.56
2023-04-13T01:55:01.224Z,99105.13
2023-04-13T01:56:05.843Z,99091.88
2023-04-13T01:57:08.960Z,99107.72
2023-04-13T01:58:14.459Z,99087.50
2023-04-13T01:59:18.170Z,99094.94
2023-04-13T02:00:21.729Z,99090.84
2023-04-13T02:01:24.077Z,99092.53
2023-04-13T02:02:27.031Z,99096.34
2023-04-13T02:03:30.557Z,99117.75
2023-04-13T02:04:33.715Z,99123.63
2023-04-13T02:05:36.964Z,99127.69
2023-04-13T02:06:41.000Z,99114.78
2023-04-13T02:07:44.825Z,99120.75
2023-04-13T02:08:49.555Z,99120.09
2023-04-13T02:09:56.058Z,99124.00
2023-04-13T02:10:58.882Z,99116.38
2023-04-13T02:12:10.016Z,99106.16
2023-04-13T02:13:13.519Z,99118.78
2023-04-13T02:14:15.807Z,99113.94
2023-04-13T02:15:20.810Z,99112.41
2023-04-13T02:16:22.496Z,99113.50
2023-04-13T02:17:26.096Z,99118.59
2023-04-13T02:18:27.878Z,99113.06
2023-04-13T02:19:31.737Z,99102.50
2023-04-13T02:20:42.898Z,99122.41
2023-04-13T02:21:46.443Z,99103.03
2023-04-13T02:22:49.015Z,99111.16
2023-04-13T02:23:52.502Z,99121.94
2023-04-13T02:24:55.053Z,99113.66
2023-04-13T02:25:58.325Z,99120.13
2023-04-13T02:27:01.245Z,99133.00
2023-04-13T02:28:04.863Z,99118.94
2023-04-13T02:29:07.968Z,99131.25
2023-04-13T02:30:12.058Z,99136.09
2023-04-13T02:31:17.549Z,99138.22
2023-04-13T02:32:20.426Z,99133.53
2023-04-13T02:33:22.980Z,99125.97
2023-04-13T02:34:26.991Z,99130.97
2023-04-13T02:35:29.225Z,99139.25
2023-04-13T02:36:33.108Z,99103.88
2023-04-13T02:37:34.750Z,99129.91
2023-04-13T02:38:42.508Z,99113.56
2023-04-13T02:39:44.468Z,99112.47
2023-04-13T02:40:49.436Z,99130.22
2023-04-13T02:41:52.780Z,99137.28
2023-04-13T02:42:57.730Z,99133.69
2023-04-13T02:44:00.024Z,99130.59
2023-04-13T02:45:03.479Z,99132.06
2023-04-13T02:46:05.700Z,99126.63
2023-04-13T02:47:12.456Z,99129.88
2023-04-13T02:48:14.341Z,99124.31
2023-04-13T02:49:18.022Z,99129.97
2023-04-13T02:50:19.858Z,99128.09
2023-04-13T02:51:23.275Z,99126.47
2023-04-13T02:52:25.432Z,99125.56
2023-04-13T02:53:28.286Z,99124.56
2023-04-13T02:54:29.963Z,99125.16
2023-04-13T02:55:32.654Z,99126.41
2023-04-13T02:56:35.869Z,99120.34
2023-04-13T02:57:38.625Z,99114.41
2023-04-13T02:58:41.816Z,99124.56
2023-04-13T02:59:44.517Z,99114.91
2023-04-13T03:00:48.838Z,99109.09
2023-04-13T03:01:52.431Z,99101.94
2023-04-13T03:02:55.847Z,99104.50
2023-04-13T03:03:58.987Z,99122.34
2023-04-13T03:05:03.424Z,99106.81
2023-04-13T03:06:06.689Z,99116.09
2023-04-13T03:07:12.968Z,99131.09
2023-04-13T03:08:17.726Z,99134.50
2023-04-13T03:09:19.416Z,99114.69
2023-04-13T03:10:23.799Z,99139.53
2023-04-13T03:11:26.505Z,99134.63
2023-04-13T03:12:29.165Z,99137.44
2023-04-13T03:13:31.347Z,99123.84
2023-04-13T03:14:34.445Z,99127.41
2023-04-13T03:15:36.325Z,99127.09
2023-04-13T03:16:39.812Z,99126.22
2023-04-13T03:17:41.679Z,99131.72
2023-04-13T03:18:46.133Z,99137.59
2023-04-13T03:19:49.248Z,99133.19
2023-04-13T03:20:53.128Z,99131.16
2023-04-13T03:21:54.980Z,99143.44
2023-04-13T03:23:01.653Z,99135.22
2023-04-13T03:24:03.485Z,99123.19
2023-04-13T03:25:09.941Z,99126.34
2023-04-13T03:26:13.679Z,99137.00
2023-04-13T03:27:17.289Z,99118.25
2023-04-13T03:28:19.701Z,99132.19
2023-04-13T03:29:22.476Z,99132.66
2023-04-13T03:30:24.141Z,99122.16
2023-04-13T03:31:27.640Z,99126.13
2023-04-13T03:32:29.566Z,99119.81
2023-04-13T03:33:32.725Z,99131.41
2023-04-13T03:34:43.861Z,99122.69
2023-04-13T03:35:46.638Z,99132.00
2023-04-13T03:36:53.852Z,99108.81
2023-04-13T03:37:56.100Z,99108.56
2023-04-13T03:39:00.896Z,99119.16
2023-04-13T03:40:02.579Z,99120.53
2023-04-13T03:41:05.972Z,99119.88
2023-04-13T03:42:07.761Z,99106.16
2023-04-13T03:43:10.464Z,99115.47
2023-04-13T03:44:12.154Z,99106.44
2023-04-13T03:45:15.144Z,99103.53
2023-04-13T03:46:16.881Z,99109.50
2023-04-13T03:47:20.422Z,99108.47
2023-04-13T03:48:27.520Z,99116.97
2023-04-13T03:49:31.535Z,99120.97
2023-04-13T03:50:34.711Z,99121.16
2023-04-13T03:51:41.130Z,99109.78
2023-04-13T03:52:42.701Z,99120.34
2023-04-13T03:53:45.337Z,99123.91
2023-04-13T03:54:47.316Z,99124.31
2023-04-13T03:55:50.229Z,99122.25
2023-04-13T03:56:52.138Z,99123.63
2023-04-13T03:57:55.378Z,99108.22
2023-04-13T03:58:57.319Z,99112.31
2023-04-13T04:00:00.332Z,99118.63
2023-04-13T04:01:02.170Z,99098.50
2023-04-13T04:02:05.043Z,99105.88
2023-04-13T04:03:06.895Z,99107.19
2023-04-13T04:04:10.061Z,99101.00
2023-04-13T04:05:11.885Z,99117.63
2023-04-13T04:06:17.776Z,99124.66
2023-04-13T04:07:23.002Z,99111.13
2023-04-13T04:08:25.744Z,99100.53
2023-04-13T04:09:27.836Z,99117.53
2023-04-13T04:10:30.928Z,99112.72
2023-04-13T04:11:32.827Z,99120.19
2023-04-13T04:12:36.186Z,99121.69
2023-04-13T04:13:39.740Z,99123.97
2023-04-13T04:14:42.645Z,99117.34
2023-04-13T04:15:44.412Z,99136.19
2023-04-13T04:16:47.455Z,99133.19
2023-04-13T04:17:49.494Z,99128.41
2023-04-13T04:18:52.974Z,99134.63
2023-04-13T04:19:54.657Z,99123.72
2023-04-13T04:20:57.597Z,99137.81
2023-04-13T04:22:03.800Z,99133.50
2023-04-13T04:23:10.265Z,99134.66
2023-04-13T04:24:20.940Z,99118.19
2023-04-13T04:25:22.898Z,99109.44
2023-04-13T04:26:26.082Z,99109.22
2023-04-13T04:27:28.268Z,99112.34
2023-04-13T04:28:31.438Z,99110.97
2023-04-13T04:29:34.427Z,99106.69
2023-04-13T04:30:37.321Z,99116.44
2023-04-13T04:31:45.370Z,99105.88
2023-04-13T04:32:48.512Z,99101.03
2023-04-13T04:33:51.844Z,99119.25
2023-04-13T04:34:54.563Z,99115.06
2023-04-13T04:36:04.757Z,99127.63
2023-04-13T04:37:19.695Z,99123.59
2023-04-13T04:38:23.704Z,99114.50
2023-04-13T04:39:27.333Z,99129.25
2023-04-13T04:40:30.080Z,99141.16
2023-04-13T04:41:37.551Z,99142.53
2023-04-13T04:42:40.687Z,99134.00
2023-04-13T04:43:46.316Z,99119.50
2023-04-13T04:44:50.360Z,99127.41
2023-04-13T04:45:52.775Z,99141.91
2023-04-13T04:46:59.240Z,99146.00
2023-04-13T04:48:04.044Z,99150.72
2023-04-13T04:49:06.977Z,99148.88
2023-04-13T04:50:09.772Z,99136.69
2023-04-13T04:51:14.071Z,99134.41
2023-04-13T04:52:17.110Z,99150.16
2023-04-13T04:53:19.803Z,99144.19
2023-04-13T04:54:21.983Z,99155.69
2023-04-13T04:55:24.648Z,99161.31
2023-04-13T04:56:27.291Z,99155.25
2023-04-13T04:57:29.668Z,99166.53
2023-04-13T04:58:32.671Z,99153.38
2023-04-13T04:59:36.286Z,99171.50
2023-04-13T05:00:38.976Z,99167.97
2023-04-13T05:01:43.313Z,99185.44
2023-04-13T05:02:46.554Z,99175.81
2023-04-13T05:03:48.299Z,99173.84
2023-04-13T05:04:53.141Z,99169.41
2023-04-13T05:05:54.833Z,99183.63
2023-04-13T05:06:57.608Z,99186.72
2023-04-13T05:08:01.282Z,99160.50
2023-04-13T05:09:06.007Z,99183.47
2023-04-13T05:10:10.671Z,99171.69
2023-04-13T05:11:13.266Z,99179.72
2023-04-13T05:12:15.425Z,99176.09
2023-04-13T05:13:18.005Z,99193.06
2023-04-13T05:14:19.798Z,99203.53
2023-04-13T05:15:22.726Z,99190.13
2023-04-13T05:16:24.776Z,99190.00
2023-04-13T05:17:28.741Z,99199.06
2023-04-13T05:18:32.989Z,99205.41
2023-04-13T05:19:36.144Z,99192.19
2023-04-13T05:20:40.365Z,99203.75
2023-04-13T05:21:41.985Z,99214.44
2023-04-13T05:22:44.673Z,99213.66
2023-04-13T05:23:48.223Z,99221.94
2023-04-13T05:24:51.108Z,99201.31
2023-04-13T05:25:53.406Z,99220.41
2023-04-13T05:26:57.351Z,99215.50
2023-04-13T05:27:59.018Z,99205.78
2023-04-13T05:29:03.071Z,99230.19
2023-04-13T05:30:06.484Z,99215.63
2023-04-13T05:31:11.208Z,99224.91
2023-04-13T05:32:12.964Z,99215.81
2023-04-13T05:33:17.100Z,99208.84
2023-04-13T05:34:22.779Z,99207.44
2023-04-13T05:35:27.997Z,99214.69
2023-04-13T05:36:31.988Z,99223.22
2023-04-13T05:37:33.680Z,99215.81
2023-04-13T05:38:36.860Z,99227.91
2023-04-13T05:39:40.101Z,99208.00
2023-04-13T05:40:43.098Z,99235.25
2023-04-13T05:41:45.092Z,99230.34
2023-04-13T05:42:47.999Z,99228.81
2023-04-13T05:43:49.630Z,99225.28
2023-04-13T05:44:52.476Z,99229.19
2023-04-13T05:45:55.233Z,99221.66
2023-04-13T05:46:57.052Z,99223.22
2023-04-13T05:47:59.837Z,99221.19
2023-04-13T05:49:01.955Z,99210.13
2023-04-13T05:50:05.059Z,99240.94
2023-04-13T05:51:08.481Z,99232.78
2023-04-13T05:52:10.534Z,99241.19
2023-04-13T05:53:14.008Z,99251.81
2023-04-13T05:54:17.420Z,99253.38
2023-04-13T05:55:20.507Z,99252.31
2023-04-13T05:56:24.027Z,99253.03
2023-04-13T05:57:26.096Z,99251.66
2023-04-13T05:58:31.703Z,99235.38
2023-04-13T05:59:33.330Z,99247.75
2023-04-13T06:00:37.690Z,99241.50
2023-04-13T06:01:39.312Z,99239.13
2023-04-13T06:02:43.353Z,99244.97
2023-04-13T06:03:48.147Z,99246.63
2023-04-13T06:04:53.727Z,99235.09
2023-04-13T06:05:55.944Z,99243.59
2023-04-13T06:06:59.269Z,99251.81
2023-04-13T06:08:01.341Z,99249.97
2023-04-13T06:09:05.692Z,99240.94
2023-04-13T06:10:08.534Z,99252.09
2023-04-13T06:11:12.593Z,99253.63
2023-04-13T06:12:15.891Z,99241.84
2023-04-13T06:13:18.685Z,99254.38
2023-04-13T06:14:21.051Z,99251.81
2023-04-13T06:15:24.744Z,99241.16
2023-04-13T06:16:26.678Z,99246.16
2023-04-13T06:17:29.412Z,99250.63
2023-04-13T06:18:31.064Z,99230.44
2023-04-13T06:19:33.647Z,99239.25
2023-04-13T06:20:37.151Z,99249.53
2023-04-13T06:21:39.825Z,99241.06
2023-04-13T06:22:41.578Z,99248.66
2023-04-13T06:23:44.270Z,99251.94
2023-04-13T06:24:46.007Z,99253.28
2023-04-13T06:25:49.265Z,99245.59
2023-04-13T06:26:52.295Z,99246.63
2023-04-13T06:27:55.128Z,99239.25
2023-04-13T06:28:59.191Z,99233.91
2023-04-13T06:30:02.654Z,99247.50
2023-04-13T06:31:06.443Z,99240.94
2023-04-13T06:32:08.158Z,99242.97
2023-04-13T06:33:15.500Z,99242.44
2023-04-13T06:34:17.768Z,99251.38
2023-04-13T06:35:22.044Z,99249.28
2023-04-13T06:36:23.794Z,99256.31
2023-04-13T06:37:26.426Z,99254.25
2023-04-13T06:38:29.162Z,99250.06
2023-04-13T06:39:32.941Z,99244.31
2023-04-13T06:40:35.633Z,99258.91
2023-04-13T06:41:37.891Z,99251.75
2023-04-13T06:42:42.451Z,99241.94
2023-04-13T06:43:45.668Z,99257.72
2023-04-13T06:44:47.352Z,99262.09
2023-04-13T06:45:50.586Z,99248.03
2023-04-13T06:46:52.294Z,99257.56
2023-04-13T06:47:54.986Z,99256.44
2023-04-13T06:48:57.050Z,99251.13
2023-04-13T06:50:04.858Z,99258.47
2023-04-13T06:51:07.440Z,99262.00
2023-04-13T06:52:09.960Z,99257.84
2023-04-13T06:53:12.677Z,99265.78
2023-04-13T06:54:14.482Z,99243.09
2023-04-13T06:55:17.686Z,99259.56
2023-04-13T06:56:19.280Z,99244.06
2023-04-13T06:57:21.830Z,99247.81
2023-04-13T06:58:24.893Z,99257.31
2023-04-13T06:59:27.459Z,99266.53
2023-04-13T07:00:30.619Z,99262.53
2023-04-13T07:01:34.832Z,99256.50
2023-04-13T07:02:36.766Z,99252.66
2023-04-13T07:03:39.996Z,99253.66
2023-04-13T07:04:43.388Z,99250.81
2023-04-13T07:05:46.292Z,99262.53
2023-04-13T07:06:47.927Z,99241.59
2023-04-13T07:07:51.428Z,99247.03
2023-04-13T07:08:53.940Z,99254.72
2023-04-13T07:09:55.599Z,99243.91
2023-04-13T07:10:58.149Z,99247.16
2023-04-13T07:12:04.343Z,99248.94
2023-04-13T07:13:06.133Z,99243.75
2023-04-13T07:14:10.269Z,99231.66
2023-04-13T07:15:13.021Z,99242.94
2023-04-13T07:16:15.028Z,99236.94
2023-04-13T07:17:18.351Z,99226.88
2023-04-13T07:18:21.545Z,99234.22
2023-04-13T07:19:25.589Z,99239.47
2023-04-13T07:20:28.161Z,99240.66
2023-04-13T07:21:31.897Z,99241.88
2023-04-13T07:22:35.248Z,99246.75
2023-04-13T07:23:38.037Z,99225.53
2023-04-13T07:24:39.727Z,99236.03
2023-04-13T07:25:45.352Z,99237.53
2023-04-13T07:26:47.315Z,99240.00
2023-04-13T07:27:50.585Z,99220.59
2023-04-13T07:28:52.266Z,99225.88
2023-04-13T07:29:56.719Z,99227.25
2023-04-13T07:30:58.549Z,99239.75
2023-04-13T07:32:02.246Z,99251.59
2023-04-13T07:33:05.053Z,99214.00
2023-04-13T07:34:07.027Z,99234.38
2023-04-13T07:35:10.790Z,99242.16
2023-04-13T07:36:12.437Z,99240.34
2023-04-13T07:37:14.939Z,99243.34
2023-04-13T07:38:17.538Z,99239.13
2023-04-13T07:39:20.924Z,99246.16
2023-04-13T07:40:23.501Z,99231.28
2023-04-13T07:41:25.198Z,99249.94
2023-04-13T07:42:27.686Z,99260.59
2023-04-13T07:43:30.271Z,99261.88
2023-04-13T07:44:32.055Z,99257.28
2023-04-13T07:45:36.028Z,99242.09
2023-04-13T07:46:38.252Z,99255.72
2023-04-13T07:47:41.314Z,99248.66
2023-04-13T07:48:44.591Z,99261.47
2023-04-13T07:49:47.400Z,99264.78
2023-04-13T07:50:52.857Z,99248.75
2023-04-13T07:51:54.513Z,99264.47
2023-04-13T07:52:57.204Z,99266.50
2023-04-13T07:53:58.852Z,99261.56
2023-04-13T07:55:03.328Z,99258.16
2023-04-13T07:56:05.628Z,99275.59
2023-04-13T07:57:08.272Z,99268.25
2023-04-13T07:58:10.866Z,99268.22
2023-04-13T07:59:13.932Z,99275.69
2023-04-13T08:00:20.412Z,99265.69
2023-04-13T08:01:23.525Z,99267.84
2023-04-13T08:02:26.613Z,99276.72
2023-04-13T08:03:31.361Z,99272.84
2023-04-13T08:04:34.576Z,99279.50
2023-04-13T08:05:37.709Z,99277.78
2023-04-13T08:06:39.558Z,99273.16
2023-04-13T08:07:46.871Z,99283.94
2023-04-13T08:08:48.478Z,99274.88
2023-04-13T08:09:52.767Z,99281.03
2023-04-13T08:10:55.480Z,99279.72
2023-04-13T08:12:00.126Z,99263.38
2023-04-13T08:13:02.809Z,99282.03
2023-04-13T08:14:05.627Z,99279.13
2023-04-13T08:15:09.786Z,99281.28
2023-04-13T08:16:14.837Z,99271.59
2023-04-13T08:17:17.758Z,99279.06
2023-04-13T08:18:20.415Z,99290.47
2023-04-13T08:19:22.644Z,99289.41
2023-04-13T08:20:25.211Z,99294.59
2023-04-13T08:21:28.555Z,99290.50
2023-04-13T08:22:32.820Z,99284.78
2023-04-13T08:23:35.466Z,99279.16
2023-04-13T08:24:37.142Z,99272.69
2023-04-13T08:25:40.686Z,99295.69
2023-04-13T08:26:44.384Z,99313.50
2023-04-13T08:27:46.979Z,99284.69
2023-04-13T08:28:50.285Z,99298.41
2023-04-13T08:29:55.568Z,99303.06
2023-04-13T08:30:58.083Z,99296.72
2023-04-13T08:31:59.678Z,99307.31
2023-04-13T08:33:03.722Z,99312.16
2023-04-13T08:34:06.384Z,99302.25
2023-04-13T08:35:09.744Z,99312.72
2023-04-13T08:37:02.677Z,99319.34
2023-04-13T08:38:25.903Z,99323.03
2023-04-13T08:41:05.811Z,99319.38
2023-04-13T08:42:08.532Z,99332.66
2023-04-13T08:43:10.095Z,99331.41
2023-04-13T08:44:14.053Z,99338.34
2023-04-13T08:45:16.744Z,99347.06
2023-04-13T08:46:19.724Z,99340.91
2023-04-13T08:47:22.851Z,99340.81
2023-04-13T08:48:26.181Z,99348.03
2023-04-13T08:49:28.973Z,99347.94
2023-04-13T08:50:31.571Z,99335.63
2023-04-13T08:51:34.692Z,99347.44
2023-04-13T08:52:37.653Z,99354.09
2023-04-13T08:53:39.267Z,99348.44
2023-04-13T08:54:41.758Z,99356.13
2023-04-13T08:55:46.211Z,99342.97
2023-04-13T08:56:50.652Z,99343.75
2023-04-13T08:57:57.735Z,99333.47
2023-04-13T08:59:06.934Z,99336.44
2023-04-13T09:00:16.069Z,99341.91
2023-04-13T09:01:18.909Z,99342.00
2023-04-13T09:02:24.368Z,99345.44
2023-04-13T09:03:30.813Z,99347.28
2023-04-13T09:04:38.883Z,99351.88
2023-04-13T09:05:43.325Z,99350.53
2023-04-13T09:06:50.178Z,99363.38
2023-04-13T09:07:57.355Z,99352.81
2023-04-13T09:09:01.335Z,99357.41
2023-04-13T09:10:06.084Z,99352.94
2023-04-13T09:11:09.726Z,99345.19
2023-04-13T09:12:14.568Z,99353.44
2023-04-13T09:13:17.042Z,99345.94
2023-04-13T09:14:20.068Z,99335.56
2023-04-13T09:15:24.116Z,99352.38
2023-04-13T09:16:26.441Z,99346.91
2023-04-13T09:17:32.185Z,99348.31
2023-04-13T09:18:34.712Z,99355.81
2023-04-13T09:19:37.725Z,99351.69
2023-04-13T09:20:40.638Z,99350.53
2023-04-13T09:21:44.987Z,99348.19
2023-04-13T09:22:46.740Z,99349.44
2023-04-13T09:23:56.795Z,99344.34
2023-04-13T09:24:59.332Z,99348.06
2023-04-13T09:26:05.196Z,99353.69
2023-04-13T09:27:17.871Z,99351.13
2023-04-13T09:28:21.335Z,99359.03
2023-04-13T09:29:23.807Z,99354.81
2023-04-13T09:30:27.143Z,99364.66
2023-04-13T09:31:30.270Z,99365.00
2023-04-13T09:32:32.542Z,99366.59
2023-04-13T09:33:45.590Z,99356.25
2023-04-13T09:34:58.646Z,99376.50
2023-04-13T09:36:10.579Z,99362.94
2023-04-13T09:37:32.717Z,99362.22
2023-04-13T09:38:35.715Z,99363.59
2023-04-13T09:39:38.198Z,99354.03
2023-04-13T09:40:49.021Z,99359.25
2023-04-13T09:41:52.995Z,99370.56
2023-04-13T09:42:56.628Z,99348.59
2023-04-13T09:44:00.903Z,99358.22
2023-04-13T09:45:02.431Z,99348.56
2023-04-13T09:46:05.639Z,99360.50
2023-04-13T09:47:08.628Z,99352.50
2023-04-13T09:48:18.722Z,99366.00
2023-04-13T09:49:25.756Z,99353.53
2023-04-13T09:50:28.335Z,99366.81
2023-04-13T09:51:38.049Z,99352.88
2023-04-13T09:52:40.541Z,99345.38
2023-04-13T09:53:46.408Z,99341.78
2023-04-13T09:54:52.607Z,99346.63
2023-04-13T09:55:59.764Z,99344.59
2023-04-13T09:57:05.123Z,99352.94
2023-04-13T09:58:11.607Z,99349.50
2023-04-13T09:59:15.444Z,99346.50
2023-04-13T10:00:21.075Z,99356.66
2023-04-13T10:01:25.305Z,99344.25
2023-04-13T10:02:27.847Z,99351.78
2023-04-13T10:03:32.219Z,99344.66
2023-04-13T10:04:35.725Z,99347.88
2023-04-13T10:05:51.104Z,99351.94
2023-04-13T10:07:00.920Z,99352.09
2023-04-13T10:08:02.633Z,99349.19
2023-04-13T10:09:05.982Z,99354.69
2023-04-13T10:10:09.038Z,99352.56
2023-04-13T10:11:14.387Z,99352.19
2023-04-13T10:12:17.798Z,99357.84
2023-04-13T10:13:25.439Z,99359.63
2023-04-13T10:14:35.426Z,99357.38
2023-04-13T10:15:52.411Z,99365.09
2023-04-13T10:17:27.886Z,99357.41
2023-04-13T10:18:39.904Z,99363.41
2023-04-13T10:19:46.739Z,99365.16
2023-04-13T10:20:50.263Z,99359.72
2023-04-13T10:21:54.804Z,99355.81
2023-04-13T10:22:59.143Z,99372.06
2023-04-13T10:24:01.424Z,99366.56
2023-04-13T10:25:06.908Z,99368.19
2023-04-13T10:26:09.674Z,99371.75
2023-04-13T10:27:14.752Z,99357.59
2023-04-13T10:28:16.728Z,99374.66
2023-04-13T10:29:29.609Z,99376.28
2023-04-13T10:30:32.220Z,99382.56
2023-04-13T10:31:38.012Z,99380.28
2023-04-13T10:32:41.015Z,99372.22
2023-04-13T10:33:50.062Z,99381.38
2023-04-13T10:34:53.399Z,99370.63
2023-04-13T10:35:57.179Z,99392.50
2023-04-13T10:37:03.849Z,99373.75
2023-04-13T10:38:05.463Z,99390.69
2023-04-13T10:39:08.287Z,99388.00
2023-04-13T10:40:13.394Z,99387.88
2023-04-13T10:41:24.772Z,99384.22
2023-04-13T10:42:28.036Z,99389.94
2023-04-13T10:43:32.219Z,99384.34
2023-04-13T10:44:46.593Z,99387.06
2023-04-13T10:45:48.195Z,99391.69
2023-04-13T10:46:51.971Z,99383.34
2023-04-13T10:47:54.422Z,99380.91
2023-04-13T10:49:00.136Z,99393.69
2023-04-13T10:50:04.477Z,99383.88
2023-04-13T10:51:07.083Z,99393.78
2023-04-13T10:52:10.664Z,99387.56
2023-04-13T10:53:13.257Z,99386.00
2023-04-13T10:54:16.088Z,99388.13
2023-04-13T10:55:19.807Z,99389.94
2023-04-13T10:56:22.404Z,99389.78
2023-04-13T10:57:24.979Z,99391.84
2023-04-13T10:58:32.766Z,99399.53
2023-04-13T10:59:55.502Z,99398.22
2023-04-13T11:01:03.329Z,99399.47
2023-04-13T11:02:06.721Z,99394.69
2023-04-13T11:03:09.539Z,99402.41
2023-04-13T11:04:16.778Z,99404.53
2023-04-13T11:05:22.597Z,99393.72
2023-04-13T11:06:24.247Z,99408.59
2023-04-13T11:07:27.164Z,99401.44
2023-04-13T11:08:30.555Z,99395.97
2023-04-13T11:09:32.277Z,99391.50
2023-04-13T11:10:35.027Z,99401.75
2023-04-13T11:11:37.410Z,99396.06
2023-04-13T11:12:40.355Z,99405.56
2023-04-13T11:13:47.216Z,99399.09
2023-04-13T11:14:50.567Z,99396.22
2023-04-13T11:16:01.534Z,99404.00
2023-04-13T11:17:06.869Z,99404.78
2023-04-13T11:18:09.525Z,99399.38
2023-04-13T11:19:11.356Z,99400.53
2023-04-13T11:20:15.637Z,99416.13
2023-04-13T11:21:18.885Z,99395.97
2023-04-13T11:22:23.989Z,99403.66
2023-04-13T11:23:26.566Z,99409.72
2023-04-13T11:24:29.803Z,99405.63
2023-04-13T11:25:33.610Z,99406.13
2023-04-13T11:26:38.823Z,99407.06
2023-04-13T11:27:40.811Z,99404.34
2023-04-13T11:28:46.151Z,99408.50
2023-04-13T11:29:57.911Z,99408.41
2023-04-13T11:31:01.509Z,99414.78
2023-04-13T11:32:05.840Z,99413.53
2023-04-13T11:33:09.863Z,99410.25
2023-04-13T11:34:13.097Z,99411.75
2023-04-13T11:35:14.868Z,99407.25
2023-04-13T11:36:19.962Z,99412.53
2023-04-13T11:37:21.773Z,99410.78
2023-04-13T11:38:24.750Z,99417.91
2023-04-13T11:39:26.491Z,99397.41
2023-04-13T11:40:29.162Z,99415.13
2023-04-13T11:41:32.821Z,99412.53
2023-04-13T11:42:39.338Z,99410.41
2023-04-13T11:43:42.485Z,99419.00
2023-04-13T11:44:46.342Z,99415.13
2023-04-13T11:45:49.085Z,99414.66
2023-04-13T11:46:53.033Z,99410.19
2023-04-13T11:47:59.168Z,99414.69
2023-04-13T11:49:01.762Z,99408.56
2023-04-13T11:50:05.378Z,99410.69
2023-04-13T11:51:07.560Z,99407.34
2023-04-13T11:52:10.154Z,99408.13
2023-04-13T11:53:11.864Z,99402.59
2023-04-13T11:54:14.372Z,99400.72
2023-04-13T11:55:23.309Z,99412.09
2023-04-13T11:56:26.802Z,99409.09
2023-04-13T11:57:29.040Z,99403.50
2023-04-13T11:58:32.697Z,99406.09
2023-04-13T11:59:36.270Z,99401.06
2023-04-13T12:00:41.217Z,99403.13
2023-04-13T12:01:50.272Z,99398.16
2023-04-13T12:03:02.448Z,99391.41
2023-04-13T12:04:14.684Z,99400.75
2023-04-13T12:05:25.457Z,99397.00
2023-04-13T12:06:27.932Z,99401.50
2023-04-13T12:07:33.435Z,99394.13
2023-04-13T12:08:36.574Z,99398.28
2023-04-13T12:11:24.508Z,99397.97
2023-04-13T12:13:35.751Z,99394.44
2023-04-13T12:14:57.355Z,99390.94
2023-04-13T12:17:25.651Z,99388.19
2023-04-13T12:18:36.555Z,99393.66
2023-04-13T12:19:43.690Z,99391.25
2023-04-13T12:20:48.611Z,99398.47
2023-04-13T12:21:52.542Z,99399.47
2023-04-13T12:23:04.640Z,99399.13
2023-04-13T12:24:15.567Z,99391.09
2023-04-13T12:25:20.440Z,99395.72
2023-04-13T12:27:10.049Z,99397.56
2023-04-13T12:27:50.532Z,99403.91
2023-04-13T12:28:56.475Z,99394.09
2023-04-13T12:30:03.629Z,99400.25
2023-04-13T12:31:07.388Z,99390.56
2023-04-13T12:32:13.897Z,99391.03
2023-04-13T12:33:15.559Z,99397.13
2023-04-13T12:34:20.799Z,99396.28
2023-04-13T12:35:22.760Z,99401.56
2023-04-13T12:36:28.430Z,99401.72
2023-04-13T12:37:30.000Z,99401.25
2023-04-13T12:38:33.196Z,99413.75
2023-04-13T12:39:35.795Z,99417.66
2023-04-13T12:40:38.497Z,99421.88